Time;durP1;ratioP1;P1;durP2;ratioP2;P2;SDS_P1;SDS_P2;PMS_P1;PMS_P2;Temp;Humidity;BMP_temperature;BMP_pressure;BME280_temperature;BME280_humidity;BME280_pressure;Samples;Min_cycle;Max_cycle;Signal;HPM_P1;HPM_P2
2021/04/02 00:01:11;;;;;;;2.47;1.48;;;;;;;;;;5073173;28;20025;-18
2021/04/02 00:03:37;;;;;;;4.60;1.60;;;;;;;;;;5072878;28;20463;-18
2021/04/02 00:06:03;;;;;;;9.63;1.92;;;;;;;;;;5072989;28;20051;-18
2021/04/02 00:08:29;;;;;;;6.20;1.23;;;;;;;;;;5072824;28;20020;-18
2021/04/02 00:10:56;;;;;;;3.72;1.30;;;;;;;;;;5072993;28;20033;-18
2021/04/02 00:13:23;;;;;;;3.97;1.77;;;;;;;;;;5072625;28;20090;-18
2021/04/02 00:15:49;;;;;;;6.00;2.05;;;;;;;;;;5073028;28;20029;-19
2021/04/02 00:18:15;;;;;;;3.88;1.55;;;;;;;;;;5072425;28;20030;-18
2021/04/02 00:20:40;;;;;;;4.57;1.65;;;;;;;;;;5071326;28;20036;-18
2021/04/02 00:23:06;;;;;;;1.75;1.45;;;;;;;;;;5072924;28;20020;-18
2021/04/02 00:25:32;;;;;;;3.58;1.30;;;;;;;;;;5072376;28;20043;-18
2021/04/02 00:27:57;;;;;;;3.00;1.52;;;;;;;;;;5072659;28;20414;-18
2021/04/02 00:30:43;;;;;;;2.00;1.40;;;;;;;;;;5072330;28;20032;-19
2021/04/02 00:33:09;;;;;;;2.03;1.70;;;;;;;;;;5072144;28;20036;-18
2021/04/02 00:35:35;;;;;;;2.47;1.65;;;;;;;;;;5072373;28;20019;-19
2021/04/02 00:38:00;;;;;;;3.65;1.85;;;;;;;;;;5072564;28;20036;-18
2021/04/02 00:40:30;;;;;;;2.28;1.58;;;;;;;;;;5072307;28;20082;-17
2021/04/02 00:42:56;;;;;;;6.00;1.90;;;;;;;;;;5072649;28;20043;-18
2021/04/02 00:45:21;;;;;;;1.80;1.30;;;;;;;;;;5072428;28;20111;-18
2021/04/02 00:47:47;;;;;;;7.93;2.30;;;;;;;;;;5072318;28;20033;-18
2021/04/02 00:50:16;;;;;;;4.88;1.95;;;;;;;;;;5070948;28;20023;-18
2021/04/02 00:52:41;;;;;;;2.17;1.48;;;;;;;;;;5072552;28;20028;-17
2021/04/02 00:55:07;;;;;;;5.82;2.55;;;;;;;;;;5071012;28;20024;-18
2021/04/02 00:57:33;;;;;;;2.55;1.52;;;;;;;;;;5070879;28;20037;-18
2021/04/02 00:59:59;;;;;;;4.05;2.10;;;;;;;;;;5072059;28;20020;-18
2021/04/02 01:02:25;;;;;;;3.35;2.00;;;;;;;;;;5072103;28;20036;-18
2021/04/02 01:04:50;;;;;;;2.70;1.95;;;;;;;;;;5054214;28;20024;-18
2021/04/02 01:07:16;;;;;;;8.90;1.85;;;;;;;;;;5070563;28;20033;-18
2021/04/02 01:09:43;;;;;;;2.75;1.98;;;;;;;;;;5054116;28;20130;-18
2021/04/02 01:12:08;;;;;;;4.18;2.53;;;;;;;;;;5070793;28;20033;-18
2021/04/02 01:14:34;;;;;;;7.45;2.40;;;;;;;;;;5072137;28;20116;-18
2021/04/02 01:16:59;;;;;;;9.20;2.22;;;;;;;;;;5072017;28;20037;-18
2021/04/02 01:19:31;;;;;;;4.45;2.28;;;;;;;;;;5070624;28;20079;-18
2021/04/02 01:21:58;;;;;;;4.20;2.25;;;;;;;;;;5070619;28;20025;-18
2021/04/02 01:24:48;;;;;;;6.25;2.70;;;;;;;;;;5070498;28;20035;-18
2021/04/02 01:27:33;;;;;;;4.82;2.50;;;;;;;;;;5059747;28;20110;-18
2021/04/02 01:30:02;;;;;;;5.55;2.05;;;;;;;;;;5070549;28;20475;-18
2021/04/02 01:32:33;;;;;;;5.97;2.33;;;;;;;;;;5070519;28;20036;-18
2021/04/02 01:35:08;;;;;;;2.47;2.15;;;;;;;;;;5071136;28;20433;-18
2021/04/02 01:37:33;;;;;;;6.03;2.55;;;;;;;;;;5074253;28;20029;-20
2021/04/02 01:39:59;;;;;;;6.68;2.97;;;;;;;;;;5075671;28;20025;-18
2021/04/02 01:42:26;;;;;;;4.47;1.83;;;;;;;;;;5075772;28;20090;-18
2021/04/02 01:44:52;;;;;;;3.30;1.92;;;;;;;;;;5074202;28;20182;-18
2021/04/02 01:47:20;;;;;;;6.78;2.25;;;;;;;;;;5074060;28;20040;-18
2021/04/02 01:49:46;;;;;;;3.85;2.95;;;;;;;;;;5075549;28;20416;-18
2021/04/02 01:52:12;;;;;;;3.30;2.38;;;;;;;;;;5074201;28;20099;-17
2021/04/02 01:54:39;;;;;;;6.00;2.53;;;;;;;;;;5074074;28;20017;-17
2021/04/02 01:57:06;;;;;;;4.90;2.35;;;;;;;;;;5073981;28;20040;-17
2021/04/02 01:59:34;;;;;;;3.90;2.95;;;;;;;;;;5073953;28;20016;-17
2021/04/02 02:02:02;;;;;;;6.68;3.28;;;;;;;;;;5074126;28;20115;-17
2021/04/02 02:04:29;;;;;;;7.13;2.90;;;;;;;;;;5074124;28;20021;-17
2021/04/02 02:06:56;;;;;;;6.25;3.13;;;;;;;;;;5075164;28;20178;-17
2021/04/02 02:09:28;;;;;;;7.50;2.85;;;;;;;;;;5073767;28;20375;-17
2021/04/02 02:11:58;;;;;;;5.35;3.30;;;;;;;;;;5073761;28;20032;-17
2021/04/02 02:14:34;;;;;;;4.18;2.78;;;;;;;;;;5073662;28;20032;-17
2021/04/02 02:17:09;;;;;;;6.05;3.10;;;;;;;;;;5073659;28;20115;-17
2021/04/02 02:19:37;;;;;;;4.15;2.63;;;;;;;;;;5073494;28;20052;-17
2021/04/02 02:22:05;;;;;;;3.88;2.78;;;;;;;;;;5073641;28;20024;-17
2021/04/02 02:24:37;;;;;;;5.95;2.88;;;;;;;;;;5073403;28;20090;-18
2021/04/02 02:27:06;;;;;;;4.88;2.70;;;;;;;;;;5074646;28;20075;-17
2021/04/02 02:29:33;;;;;;;4.80;2.35;;;;;;;;;;5073282;28;20078;-17
2021/04/02 02:32:00;;;;;;;4.05;2.38;;;;;;;;;;5074732;28;20036;-17
2021/04/02 02:34:31;;;;;;;2.97;2.53;;;;;;;;;;5073301;28;20471;-17
2021/04/02 02:36:58;;;;;;;4.60;2.00;;;;;;;;;;5074591;28;20028;-17
2021/04/02 02:39:23;;;;;;;8.13;2.20;;;;;;;;;;5073214;28;20023;-17
2021/04/02 02:41:53;;;;;;;6.38;2.17;;;;;;;;;;5073236;28;20043;-17
2021/04/02 02:44:20;;;;;;;4.13;2.17;;;;;;;;;;5074532;28;20104;-17
2021/04/02 02:46:46;;;;;;;3.13;2.05;;;;;;;;;;5071873;28;20483;-17
2021/04/02 02:49:14;;;;;;;3.72;2.55;;;;;;;;;;5073103;28;20562;-17
2021/04/02 02:51:44;;;;;;;6.35;2.85;;;;;;;;;;5073038;28;20046;-17
2021/04/02 02:54:13;;;;;;;5.18;3.13;;;;;;;;;;5072928;28;20028;-18
2021/04/02 02:56:40;;;;;;;7.35;3.70;;;;;;;;;;5074515;28;20036;-17
2021/04/02 02:59:07;;;;;;;4.93;3.40;;;;;;;;;;5072920;28;20126;-17
2021/04/02 03:01:35;;;;;;;4.88;2.60;;;;;;;;;;5072662;28;20024;-17
2021/04/02 03:04:01;;;;;;;10.63;3.17;;;;;;;;;;5074148;28;20021;-17
2021/04/02 03:06:27;;;;;;;6.55;2.38;;;;;;;;;;5074186;28;20098;-17
2021/04/02 03:08:55;;;;;;;8.65;2.97;;;;;;;;;;5072670;28;20017;-17
2021/04/02 03:11:26;;;;;;;4.40;3.13;;;;;;;;;;5072549;28;20055;-17
2021/04/02 03:13:56;;;;;;;3.85;2.95;;;;;;;;;;5073859;28;20112;-17
2021/04/02 03:16:24;;;;;;;13.52;3.85;;;;;;;;;;5072439;28;20077;-18
2021/04/02 03:18:52;;;;;;;5.00;3.38;;;;;;;;;;5072522;28;20025;-18
2021/04/02 03:21:19;;;;;;;5.35;3.60;;;;;;;;;;5072326;28;20383;-18
2021/04/02 03:23:50;;;;;;;4.38;3.10;;;;;;;;;;5073733;28;20036;-18
2021/04/02 03:26:16;;;;;;;4.65;2.90;;;;;;;;;;5073294;28;20054;-18
2021/04/02 03:28:45;;;;;;;6.15;4.30;;;;;;;;;;5072230;28;20119;-18
2021/04/02 03:31:11;;;;;;;8.70;3.30;;;;;;;;;;5072208;28;20020;-18
2021/04/02 03:33:41;;;;;;;7.97;3.47;;;;;;;;;;5073440;28;20063;-18
2021/04/02 03:36:18;;;;;;;8.30;4.07;;;;;;;;;;5072101;28;20028;-17
2021/04/02 03:38:44;;;;;;;7.00;3.28;;;;;;;;;;5073640;28;20379;-18
2021/04/02 03:41:15;;;;;;;4.38;2.78;;;;;;;;;;5072030;28;20028;-17
2021/04/02 03:43:45;;;;;;;5.70;3.03;;;;;;;;;;5072002;28;20082;-17
2021/04/02 03:46:12;;;;;;;5.90;3.42;;;;;;;;;;5071920;28;20036;-17
2021/04/02 03:48:42;;;;;;;4.57;3.22;;;;;;;;;;5071759;28;20029;-18
2021/04/02 03:51:10;;;;;;;6.38;3.28;;;;;;;;;;5071788;28;20509;-18
2021/04/02 03:53:38;;;;;;;6.25;3.33;;;;;;;;;;5073063;28;20025;-18
2021/04/02 03:56:06;;;;;;;7.38;3.53;;;;;;;;;;5071744;28;20028;-18
2021/04/02 03:58:40;;;;;;;4.68;3.15;;;;;;;;;;5072609;28;20067;-17
2021/04/02 04:01:08;;;;;;;10.13;3.33;;;;;;;;;;5071535;28;20052;-17
2021/04/02 04:03:35;;;;;;;5.95;2.65;;;;;;;;;;5071571;28;20024;-18
2021/04/02 04:06:02;;;;;;;4.60;2.38;;;;;;;;;;5072985;28;20044;-17
2021/04/02 04:08:29;;;;;;;5.45;3.30;;;;;;;;;;5071479;28;20016;-17
2021/04/02 04:10:59;;;;;;;4.47;2.92;;;;;;;;;;5072755;28;20380;-17
2021/04/02 04:13:27;;;;;;;4.95;3.13;;;;;;;;;;5071343;28;20020;-17
2021/04/02 04:15:54;;;;;;;3.72;2.42;;;;;;;;;;5071485;28;20117;-17
2021/04/02 04:18:21;;;;;;;4.03;2.58;;;;;;;;;;5071207;28;20023;-18
2021/04/02 04:20:47;;;;;;;3.30;2.13;;;;;;;;;;5072623;28;20020;-17
2021/04/02 04:23:17;;;;;;;6.25;2.22;;;;;;;;;;5071301;28;20052;-17
2021/04/02 04:25:43;;;;;;;4.50;2.72;;;;;;;;;;5072273;28;20067;-17
2021/04/02 04:28:10;;;;;;;4.15;2.85;;;;;;;;;;5072684;28;20020;-17
2021/04/02 04:30:36;;;;;;;5.85;2.22;;;;;;;;;;5072354;28;20055;-17
2021/04/02 04:33:01;;;;;;;6.90;3.10;;;;;;;;;;5072522;28;20017;-17
2021/04/02 04:35:29;;;;;;;4.03;2.55;;;;;;;;;;5071136;28;20055;-17
2021/04/02 04:37:54;;;;;;;8.45;3.25;;;;;;;;;;5072731;28;20048;-17
2021/04/02 04:40:22;;;;;;;6.07;3.67;;;;;;;;;;5072306;28;20040;-17
2021/04/02 04:42:47;;;;;;;5.22;3.45;;;;;;;;;;5072413;28;20017;-18
2021/04/02 04:45:15;;;;;;;5.75;3.65;;;;;;;;;;5072360;28;20028;-19
2021/04/02 04:47:40;;;;;;;5.38;3.17;;;;;;;;;;5072235;28;20020;-20
2021/04/02 04:50:06;;;;;;;7.93;3.05;;;;;;;;;;5072509;28;20032;-18
2021/04/02 04:52:32;;;;;;;5.57;3.20;;;;;;;;;;5072266;28;20044;-18
2021/04/02 04:54:58;;;;;;;5.55;3.60;;;;;;;;;;5072210;28;20024;-18
2021/04/02 04:57:24;;;;;;;4.97;2.90;;;;;;;;;;5072406;28;20101;-18
2021/04/02 04:59:50;;;;;;;6.45;4.00;;;;;;;;;;5072177;28;20052;-18
2021/04/02 05:02:17;;;;;;;4.22;3.70;;;;;;;;;;5072115;28;20036;-17
2021/04/02 05:04:43;;;;;;;7.68;4.22;;;;;;;;;;5072277;28;20027;-17
2021/04/02 05:07:09;;;;;;;10.50;5.20;;;;;;;;;;5070789;28;20123;-18
2021/04/02 05:09:37;;;;;;;6.45;4.53;;;;;;;;;;5070683;28;20539;-18
2021/04/02 05:12:03;;;;;;;7.47;4.18;;;;;;;;;;5076499;28;20382;-18
2021/04/02 05:14:28;;;;;;;8.48;4.22;;;;;;;;;;5076097;28;20029;-18
2021/04/02 05:16:54;;;;;;;6.18;3.78;;;;;;;;;;5076438;28;20021;-18
2021/04/02 05:19:20;;;;;;;6.85;3.88;;;;;;;;;;5075954;28;20037;-18
2021/04/02 05:21:46;;;;;;;11.98;3.85;;;;;;;;;;5076149;28;20036;-18
2021/04/02 05:24:12;;;;;;;8.57;3.47;;;;;;;;;;5076088;28;20074;-17
2021/04/02 05:26:38;;;;;;;7.18;3.30;;;;;;;;;;5074412;28;20110;-18
2021/04/02 05:29:03;;;;;;;6.25;3.50;;;;;;;;;;5074716;28;20112;-17
2021/04/02 05:31:29;;;;;;;8.30;3.78;;;;;;;;;;5075933;28;20027;-17
2021/04/02 05:33:55;;;;;;;6.80;3.85;;;;;;;;;;5076096;28;20103;-17
2021/04/02 05:36:21;;;;;;;8.70;4.40;;;;;;;;;;5074409;28;20551;-17
2021/04/02 05:38:46;;;;;;;5.82;4.15;;;;;;;;;;5075867;28;20082;-17
2021/04/02 05:41:21;;;;;;;6.53;3.65;;;;;;;;;;5075990;28;20474;-17
2021/04/02 05:43:48;;;;;;;8.27;3.47;;;;;;;;;;5074358;28;20024;-17
2021/04/02 05:46:14;;;;;;;11.68;4.20;;;;;;;;;;5075791;28;20077;-17
2021/04/02 05:48:40;;;;;;;7.38;3.67;;;;;;;;;;5075477;28;20029;-17
2021/04/02 05:51:06;;;;;;;7.07;4.22;;;;;;;;;;5075347;28;20027;-17
2021/04/02 05:53:33;;;;;;;7.22;3.38;;;;;;;;;;5075389;28;20036;-17
2021/04/02 05:56:00;;;;;;;11.23;3.80;;;;;;;;;;5075441;28;20039;-19
2021/04/02 05:58:26;;;;;;;5.95;3.50;;;;;;;;;;5075060;28;20032;-17
2021/04/02 06:00:53;;;;;;;4.93;3.08;;;;;;;;;;5075210;28;20099;-18
2021/04/02 06:03:20;;;;;;;7.18;3.22;;;;;;;;;;5075165;28;20509;-24
2021/04/02 06:05:46;;;;;;;5.47;4.35;;;;;;;;;;5075110;28;20025;-18
2021/04/02 06:08:12;;;;;;;7.28;3.63;;;;;;;;;;5075184;28;20128;-18
2021/04/02 06:10:38;;;;;;;7.07;4.43;;;;;;;;;;5075079;28;20467;-18
2021/04/02 06:13:04;;;;;;;7.78;3.40;;;;;;;;;;5074980;28;20052;-18
2021/04/02 06:15:33;;;;;;;10.35;3.60;;;;;;;;;;5075222;28;20024;-17
2021/04/02 06:18:05;;;;;;;6.63;4.13;;;;;;;;;;5075306;28;20028;-17
2021/04/02 06:20:35;;;;;;;9.35;6.20;;;;;;;;;;5074972;28;20033;-18
2021/04/02 06:23:02;;;;;;;8.32;6.32;;;;;;;;;;5073772;28;20029;-17
2021/04/02 06:25:27;;;;;;;8.23;3.00;;;;;;;;;;5074851;28;20484;-17
2021/04/02 06:27:53;;;;;;;4.70;3.10;;;;;;;;;;5074832;28;20111;-17
2021/04/02 06:30:21;;;;;;;6.22;3.40;;;;;;;;;;5074704;28;20112;-17
2021/04/02 06:32:49;;;;;;;4.47;3.08;;;;;;;;;;5075033;28;20025;-17
2021/04/02 06:35:15;;;;;;;12.40;4.10;;;;;;;;;;5074688;28;20032;-17
2021/04/02 06:37:40;;;;;;;8.38;4.65;;;;;;;;;;5074491;28;20020;-17
2021/04/02 06:40:13;;;;;;;5.25;3.63;;;;;;;;;;5073230;28;20025;-17
2021/04/02 06:42:42;;;;;;;7.07;3.80;;;;;;;;;;5074176;28;20033;-17
2021/04/02 06:45:08;;;;;;;8.27;3.13;;;;;;;;;;5074469;28;20012;-20
2021/04/02 06:47:37;;;;;;;5.30;3.88;;;;;;;;;;5074341;28;20051;-20
2021/04/02 06:50:20;;;;;;;9.85;3.85;;;;;;;;;;5074527;28;20031;-20
2021/04/02 06:52:46;;;;;;;4.78;3.25;;;;;;;;;;5074678;28;20017;-19
2021/04/02 06:55:12;;;;;;;8.63;4.38;;;;;;;;;;5072951;28;20383;-20
2021/04/02 06:57:41;;;;;;;14.43;4.22;;;;;;;;;;5074144;28;20025;-20
2021/04/02 07:00:07;;;;;;;7.15;3.35;;;;;;;;;;5074060;28;20013;-20
2021/04/02 07:02:34;;;;;;;7.50;4.35;;;;;;;;;;5074075;28;20513;-20
2021/04/02 07:05:00;;;;;;;8.60;4.72;;;;;;;;;;5074108;28;20012;-20
2021/04/02 07:07:26;;;;;;;7.20;4.68;;;;;;;;;;5073873;28;20566;-17
2021/04/02 07:09:53;;;;;;;6.95;4.60;;;;;;;;;;5074024;28;20017;-17
2021/04/02 07:12:19;;;;;;;9.73;4.93;;;;;;;;;;5073947;28;20040;-17
2021/04/02 07:14:45;;;;;;;9.18;3.92;;;;;;;;;;5074195;28;20030;-17
2021/04/02 07:17:11;;;;;;;7.13;4.00;;;;;;;;;;5073894;28;20110;-17
2021/04/02 07:19:37;;;;;;;10.82;4.00;;;;;;;;;;5073678;28;20096;-17
2021/04/02 07:22:02;;;;;;;3.60;3.00;;;;;;;;;;5073831;28;20032;-17
2021/04/02 07:24:28;;;;;;;11.38;4.30;;;;;;;;;;5073590;28;20023;-17
2021/04/02 07:26:54;;;;;;;6.20;3.30;;;;;;;;;;5073462;28;20105;-17
2021/04/02 07:29:20;;;;;;;7.80;3.97;;;;;;;;;;5073769;28;20081;-17
2021/04/02 07:31:47;;;;;;;6.05;3.78;;;;;;;;;;5073837;28;20448;-17
2021/04/02 07:34:16;;;;;;;5.82;4.63;;;;;;;;;;5072956;28;20021;-17
2021/04/02 07:36:41;;;;;;;7.38;4.07;;;;;;;;;;5073316;28;20483;-17
2021/04/02 07:39:08;;;;;;;8.60;3.50;;;;;;;;;;5073280;28;20066;-17
2021/04/02 07:41:44;;;;;;;6.57;3.08;;;;;;;;;;5073137;28;20043;-18
2021/04/02 07:44:11;;;;;;;8.02;3.83;;;;;;;;;;5072774;28;20028;-18
2021/04/02 07:46:36;;;;;;;10.40;4.47;;;;;;;;;;5072057;28;20099;-18
2021/04/02 07:49:09;;;;;;;7.95;4.38;;;;;;;;;;5072983;28;20116;-18
2021/04/02 07:51:41;;;;;;;10.25;3.88;;;;;;;;;;5071738;28;20037;-18
2021/04/02 07:54:19;;;;;;;10.43;3.20;;;;;;;;;;5072832;28;20020;-18
2021/04/02 07:56:51;;;;;;;4.97;3.38;;;;;;;;;;5072928;28;20056;-18
2021/04/02 07:59:16;;;;;;;5.75;3.63;;;;;;;;;;5072908;28;20467;-18
2021/04/02 08:01:58;;;;;;;8.80;2.83;;;;;;;;;;5072182;28;20096;-18
2021/04/02 08:04:35;;;;;;;6.20;4.10;;;;;;;;;;5072285;28;20029;-18
2021/04/02 08:07:00;;;;;;;6.07;3.72;;;;;;;;;;5071173;28;20098;-18
2021/04/02 08:09:26;;;;;;;6.63;3.97;;;;;;;;;;5072892;28;20016;-18
2021/04/02 08:11:56;;;;;;;12.43;3.28;;;;;;;;;;5072655;28;20441;-18
2021/04/02 08:14:34;;;;;;;9.02;4.07;;;;;;;;;;5072243;28;20060;-18
2021/04/02 08:17:00;;;;;;;9.32;3.20;;;;;;;;;;5071338;28;20032;-18
2021/04/02 08:19:26;;;;;;;4.90;3.42;;;;;;;;;;5070689;28;20024;-18
2021/04/02 08:21:53;;;;;;;9.52;4.07;;;;;;;;;;5072693;28;20033;-18
2021/04/02 08:24:20;;;;;;;7.20;3.83;;;;;;;;;;5072612;28;20092;-18
2021/04/02 08:26:46;;;;;;;7.40;3.28;;;;;;;;;;5072375;28;20499;-27
2021/04/02 08:29:13;;;;;;;8.05;4.28;;;;;;;;;;5072498;28;20028;-18
2021/04/02 08:31:40;;;;;;;9.23;3.60;;;;;;;;;;5072332;28;20032;-18
2021/04/02 08:34:05;;;;;;;5.22;3.15;;;;;;;;;;5072804;28;20121;-18
2021/04/02 08:36:31;;;;;;;6.43;3.20;;;;;;;;;;5072223;28;20036;-18
2021/04/02 08:38:56;;;;;;;14.05;3.10;;;;;;;;;;5072562;28;20028;-18
2021/04/02 08:41:26;;;;;;;15.30;3.47;;;;;;;;;;5072368;28;20043;-17
2021/04/02 08:43:52;;;;;;;7.75;3.10;;;;;;;;;;5072084;28;20104;-18
2021/04/02 08:46:17;;;;;;;6.30;2.80;;;;;;;;;;5071544;28;20495;-17
2021/04/02 08:48:46;;;;;;;5.72;3.10;;;;;;;;;;5072265;28;20021;-17
2021/04/02 08:51:21;;;;;;;9.32;3.20;;;;;;;;;;5072404;28;20111;-17
2021/04/02 08:53:47;;;;;;;7.25;3.65;;;;;;;;;;5072198;28;20047;-18
2021/04/02 08:56:16;;;;;;;5.65;3.78;;;;;;;;;;5072064;28;20467;-18
2021/04/02 08:58:43;;;;;;;5.70;3.63;;;;;;;;;;5070855;28;20040;-15
2021/04/02 09:01:08;;;;;;;5.32;2.80;;;;;;;;;;5072153;28;20016;-17
2021/04/02 09:03:33;;;;;;;14.90;2.92;;;;;;;;;;5072073;28;20027;-19
2021/04/02 09:05:59;;;;;;;5.03;2.88;;;;;;;;;;5072012;28;20074;-18
2021/04/02 09:08:25;;;;;;;4.00;2.42;;;;;;;;;;5072067;28;20483;-18
2021/04/02 09:10:51;;;;;;;2.88;2.28;;;;;;;;;;5072140;28;20074;-18
2021/04/02 09:13:26;;;;;;;3.80;2.65;;;;;;;;;;5070756;28;20059;-18
2021/04/02 09:15:51;;;;;;;4.25;1.70;;;;;;;;;;5072363;28;20025;-18
2021/04/02 09:18:30;;;;;;;2.78;1.67;;;;;;;;;;5072040;28;20017;-18
2021/04/02 09:20:56;;;;;;;3.05;2.30;;;;;;;;;;5072108;28;20024;-18
2021/04/02 09:23:22;;;;;;;5.75;2.10;;;;;;;;;;5071993;28;20463;-18
2021/04/02 09:25:49;;;;;;;4.97;2.50;;;;;;;;;;5071599;28;20048;-19
2021/04/02 09:28:14;;;;;;;5.70;2.40;;;;;;;;;;5070406;28;20025;-18
2021/04/02 09:30:40;;;;;;;5.22;2.25;;;;;;;;;;5070782;28;20032;-18
2021/04/02 09:33:05;;;;;;;4.60;2.35;;;;;;;;;;5070274;28;20013;-19
2021/04/02 09:35:31;;;;;;;3.35;1.95;;;;;;;;;;5072059;28;20032;-18
2021/04/02 09:37:56;;;;;;;2.45;1.52;;;;;;;;;;5071843;28;20119;-18
2021/04/02 09:40:28;;;;;;;6.72;2.20;;;;;;;;;;5071723;28;20021;-19
2021/04/02 09:42:54;;;;;;;13.07;2.65;;;;;;;;;;5072118;28;20029;-18
2021/04/02 09:45:20;;;;;;;3.63;1.30;;;;;;;;;;5071838;28;20078;-19
2021/04/02 09:47:46;;;;;;;6.28;2.20;;;;;;;;;;5071580;28;20433;-18
2021/04/02 09:50:13;;;;;;;3.55;1.60;;;;;;;;;;5071654;28;20016;-18
2021/04/02 09:52:39;;;;;;;5.50;2.63;;;;;;;;;;5071273;28;20037;-18
2021/04/02 09:55:05;;;;;;;4.80;1.90;;;;;;;;;;5071647;28;20051;-18
2021/04/02 09:57:31;;;;;;;4.97;1.70;;;;;;;;;;5074654;28;20021;-18
2021/04/02 09:59:57;;;;;;;5.13;1.92;;;;;;;;;;5075235;28;20039;-16
2021/04/02 10:02:23;;;;;;;3.10;1.65;;;;;;;;;;5073749;28;20029;-17
2021/04/02 10:04:48;;;;;;;3.20;1.70;;;;;;;;;;5075100;28;20348;-16
2021/04/02 10:07:14;;;;;;;6.60;1.90;;;;;;;;;;5075353;28;20040;-16
2021/04/02 10:09:39;;;;;;;3.33;1.65;;;;;;;;;;5075270;28;20463;-16
2021/04/02 10:12:05;;;;;;;25.40;2.88;;;;;;;;;;5075240;28;20107;-16
2021/04/02 10:14:30;;;;;;;4.53;1.80;;;;;;;;;;5073556;28;20103;-16
2021/04/02 10:16:55;;;;;;;4.53;2.65;;;;;;;;;;5074961;28;20040;-16
2021/04/02 10:19:21;;;;;;;3.47;2.00;;;;;;;;;;5074982;28;20021;-18
2021/04/02 10:21:46;;;;;;;0.80;0.70;;;;;;;;;;5074723;28;20032;-18
2021/04/02 10:24:12;;;;;;;1.65;1.55;;;;;;;;;;5074940;28;20044;-18
2021/04/02 10:26:38;;;;;;;7.18;2.00;;;;;;;;;;5074568;28;20094;-18
2021/04/02 10:29:04;;;;;;;6.50;2.30;;;;;;;;;;5074811;28;20029;-18
2021/04/02 10:31:29;;;;;;;3.45;1.77;;;;;;;;;;5074701;28;20059;-18
2021/04/02 10:33:55;;;;;;;2.15;1.40;;;;;;;;;;5074732;28;20035;-18
2021/04/02 10:36:21;;;;;;;2.90;1.70;;;;;;;;;;5073542;28;20037;-18
2021/04/02 10:38:46;;;;;;;1.10;0.90;;;;;;;;;;5074675;28;20028;-18
2021/04/02 10:41:12;;;;;;;2.45;1.50;;;;;;;;;;5074704;28;20395;-19
2021/04/02 10:43:37;;;;;;;1.83;1.17;;;;;;;;;;5073169;28;20095;-16
2021/04/02 10:46:03;;;;;;;3.60;2.20;;;;;;;;;;5074374;28;20058;-17
2021/04/02 10:48:29;;;;;;;4.53;1.85;;;;;;;;;;5074409;28;20031;-17
2021/04/02 10:50:55;;;;;;;3.28;1.38;;;;;;;;;;5072948;28;20073;-19
2021/04/02 10:53:22;;;;;;;2.30;1.60;;;;;;;;;;5074655;28;20027;-20
2021/04/02 10:55:47;;;;;;;4.05;2.42;;;;;;;;;;5074301;28;20430;-20
2021/04/02 10:58:13;;;;;;;5.13;1.08;;;;;;;;;;5074521;28;20112;-17
2021/04/02 11:00:39;;;;;;;8.43;1.70;;;;;;;;;;5074072;28;20029;-16
2021/04/02 11:03:06;;;;;;;0.20;0.17;;;;;;;;;;5074002;28;20107;-16
2021/04/02 11:05:32;;;;;;;3.72;1.83;;;;;;;;;;5073644;28;20027;-16
2021/04/02 11:08:01;;;;;;;6.90;1.73;;;;;;;;;;5071962;28;20059;-17
2021/04/02 11:10:27;;;;;;;2.47;0.80;;;;;;;;;;5073900;28;20021;-17
2021/04/02 11:12:53;;;;;;;0.50;0.50;;;;;;;;;;5072635;28;20521;-16
2021/04/02 11:15:19;;;;;;;5.70;2.35;;;;;;;;;;5072663;28;20043;-17
2021/04/02 11:17:45;;;;;;;1.55;1.08;;;;;;;;;;5073842;28;20111;-17
2021/04/02 11:20:11;;;;;;;5.00;1.92;;;;;;;;;;5073720;28;20035;-20
2021/04/02 11:22:37;;;;;;;4.93;1.67;;;;;;;;;;5073985;28;20021;-17
2021/04/02 11:25:06;;;;;;;6.47;1.80;;;;;;;;;;5073799;28;20032;-17
2021/04/02 11:27:32;;;;;;;3.03;1.75;;;;;;;;;;5073248;28;20485;-17
2021/04/02 11:29:58;;;;;;;10.50;3.20;;;;;;;;;;5073560;28;20025;-17
2021/04/02 11:32:23;;;;;;;4.57;2.15;;;;;;;;;;5073448;28;20159;-19
2021/04/02 11:34:49;;;;;;;1.30;0.63;;;;;;;;;;5071706;28;20032;-16
2021/04/02 11:37:15;;;;;;;1.35;1.05;;;;;;;;;;5072297;28;20019;-17
2021/04/02 11:39:41;;;;;;;7.18;2.50;;;;;;;;;;5071880;28;20064;-17
2021/04/02 11:42:07;;;;;;;5.53;2.05;;;;;;;;;;5073700;28;20074;-16
2021/04/02 11:44:32;;;;;;;6.68;2.80;;;;;;;;;;5073173;28;20020;-16
2021/04/02 11:46:58;;;;;;;4.20;1.90;;;;;;;;;;5071493;28;20081;-17
2021/04/02 11:49:23;;;;;;;7.40;3.22;;;;;;;;;;5072765;28;20040;-16
2021/04/02 11:51:49;;;;;;;9.23;3.05;;;;;;;;;;5072796;28;20020;-17
2021/04/02 11:54:14;;;;;;;6.13;1.80;;;;;;;;;;4717272;28;9999947;-17
2021/04/02 11:56:40;;;;;;;5.47;2.72;;;;;;;;;;5064610;28;20825;-17
2021/04/02 11:59:05;;;;;;;7.72;2.70;;;;;;;;;;5064642;28;20115;-19
2021/04/02 12:01:31;;;;;;;3.83;1.17;;;;;;;;;;5069029;28;20051;-18
2021/04/02 12:03:58;;;;;;;5.32;2.72;;;;;;;;;;5061814;28;20025;-19
2021/04/02 12:06:25;;;;;;;4.05;3.08;;;;;;;;;;5066145;28;20056;-19
2021/04/02 12:08:52;;;;;;;6.45;3.40;;;;;;;;;;5067275;28;20040;-19
2021/04/02 12:11:21;;;;;;;2.88;1.30;;;;;;;;;;5056107;28;20526;-19
2021/04/02 12:13:46;;;;;;;4.90;2.60;;;;;;;;;;5048831;28;20067;-18
2021/04/02 12:16:12;;;;;;;7.53;2.58;;;;;;;;;;5048759;28;20059;-19
2021/04/02 12:18:37;;;;;;;7.85;3.53;;;;;;;;;;5048125;28;20103;-19
2021/04/02 12:21:03;;;;;;;2.40;0.95;;;;;;;;;;5048823;28;20028;-19
2021/04/02 12:23:29;;;;;;;10.82;3.85;;;;;;;;;;5048709;28;20017;-18
2021/04/02 12:25:54;;;;;;;6.10;3.30;;;;;;;;;;5047401;28;20048;-19
2021/04/02 12:28:19;;;;;;;6.88;3.63;;;;;;;;;;5047647;28;20543;-18
2021/04/02 12:30:45;;;;;;;9.02;3.10;;;;;;;;;;5051276;28;20115;-19
2021/04/02 12:33:10;;;;;;;9.80;3.78;;;;;;;;;;5067584;28;20072;-18
2021/04/02 12:35:36;;;;;;;9.63;3.65;;;;;;;;;;5066932;28;20024;-19
2021/04/02 12:38:08;;;;;;;11.73;2.70;;;;;;;;;;5068522;28;20025;-19
2021/04/02 12:40:33;;;;;;;8.23;3.20;;;;;;;;;;5055870;28;20119;-17
2021/04/02 12:42:59;;;;;;;8.95;3.05;;;;;;;;;;5067835;28;20051;-17
2021/04/02 12:45:24;;;;;;;10.15;4.70;;;;;;;;;;5068970;28;20031;-17
2021/04/02 12:47:51;;;;;;;6.25;2.20;;;;;;;;;;5068763;28;20038;-17
2021/04/02 12:50:18;;;;;;;7.72;3.67;;;;;;;;;;5067597;28;20067;-18
2021/04/02 12:52:45;;;;;;;9.95;3.33;;;;;;;;;;5068324;28;20024;-17
2021/04/02 12:55:12;;;;;;;6.13;3.08;;;;;;;;;;5068432;28;20410;-18
2021/04/02 12:57:37;;;;;;;0.68;0.68;;;;;;;;;;5067494;28;20009;-17
2021/04/02 13:00:07;;;;;;;10.40;3.97;;;;;;;;;;5068540;28;20101;-17
2021/04/02 13:02:33;;;;;;;7.10;2.47;;;;;;;;;;5068694;28;20107;-18
2021/04/02 13:04:58;;;;;;;3.78;2.42;;;;;;;;;;5067455;28;20144;-17
2021/04/02 13:07:24;;;;;;;12.98;3.42;;;;;;;;;;5068517;28;20040;-17
2021/04/02 13:09:49;;;;;;;2.55;1.38;;;;;;;;;;5068909;28;20534;-17
2021/04/02 13:12:14;;;;;;;4.70;2.67;;;;;;;;;;5067300;28;20507;-17
2021/04/02 13:14:40;;;;;;;10.65;3.20;;;;;;;;;;5068372;28;20032;-17
2021/04/02 13:17:06;;;;;;;6.47;2.75;;;;;;;;;;5068001;28;20024;-17
2021/04/02 13:19:32;;;;;;;6.85;3.10;;;;;;;;;;5068206;28;20025;-18
2021/04/02 13:21:58;;;;;;;14.68;5.78;;;;;;;;;;5068855;28;20031;-19
2021/04/02 13:24:23;;;;;;;4.10;1.77;;;;;;;;;;5068175;28;20024;-17
2021/04/02 13:26:49;;;;;;;6.32;2.13;;;;;;;;;;5067920;28;20448;-18
2021/04/02 13:29:14;;;;;;;12.88;3.92;;;;;;;;;;5067807;28;20107;-17
2021/04/02 13:31:39;;;;;;;8.63;2.53;;;;;;;;;;5069696;28;20036;-17
2021/04/02 13:34:05;;;;;;;9.02;3.70;;;;;;;;;;5070981;28;20073;-17
2021/04/02 13:36:30;;;;;;;11.43;3.90;;;;;;;;;;5071922;28;20025;-18
2021/04/02 13:38:56;;;;;;;10.50;4.10;;;;;;;;;;5072165;28;20115;-19
2021/04/02 13:41:21;;;;;;;6.60;2.58;;;;;;;;;;5071796;28;20221;-16
2021/04/02 13:43:46;;;;;;;20.83;6.13;;;;;;;;;;5072358;28;20036;-17
2021/04/02 13:46:12;;;;;;;14.40;5.00;;;;;;;;;;5072135;28;20085;-17
2021/04/02 13:48:38;;;;;;;10.20;4.18;;;;;;;;;;5071809;28;20020;-17
2021/04/02 13:51:03;;;;;;;19.00;7.32;;;;;;;;;;5071713;28;20526;-18
2021/04/02 13:53:29;;;;;;;15.63;5.97;;;;;;;;;;5071217;28;20021;-17
2021/04/02 13:55:55;;;;;;;12.07;4.13;;;;;;;;;;5071850;28;20455;-17
2021/04/02 13:58:21;;;;;;;9.07;3.75;;;;;;;;;;5071456;28;20039;-17
2021/04/02 14:00:46;;;;;;;11.18;3.67;;;;;;;;;;5071589;28;20016;-18
2021/04/02 14:03:12;;;;;;;1.95;1.27;;;;;;;;;;5064916;28;20445;-20
2021/04/02 14:05:37;;;;;;;15.60;6.35;;;;;;;;;;5071250;28;20490;-18
2021/04/02 14:08:03;;;;;;;14.10;4.95;;;;;;;;;;5070633;28;20060;-17
2021/04/02 14:10:30;;;;;;;20.85;6.00;;;;;;;;;;5070290;28;20017;-17
2021/04/02 14:12:55;;;;;;;13.10;4.32;;;;;;;;;;5071673;28;20036;-17
2021/04/02 14:15:22;;;;;;;1.85;1.55;;;;;;;;;;5068300;28;20205;-17
2021/04/02 14:17:48;;;;;;;10.00;4.47;;;;;;;;;;5061084;28;20028;-17
2021/04/02 14:20:15;;;;;;;14.32;5.95;;;;;;;;;;5068056;28;20024;-17
2021/04/02 14:22:40;;;;;;;12.30;4.10;;;;;;;;;;5068227;28;20028;-17
2021/04/02 14:25:07;;;;;;;18.45;5.97;;;;;;;;;;5064935;28;20374;-17
2021/04/02 14:27:32;;;;;;;12.88;5.75;;;;;;;;;;5062823;28;20087;-17
2021/04/02 14:29:57;;;;;;;10.13;4.43;;;;;;;;;;5064270;28;20454;-17
2021/04/02 14:32:23;;;;;;;12.82;4.60;;;;;;;;;;5070745;28;20021;-17
2021/04/02 14:34:48;;;;;;;5.35;2.78;;;;;;;;;;5070401;28;20091;-17
2021/04/02 14:37:14;;;;;;;1.35;1.17;;;;;;;;;;5063888;28;20118;-17
2021/04/02 14:39:39;;;;;;;13.50;4.63;;;;;;;;;;5063088;28;20020;-17